sensor_id;sensor_type;location;lat;lon;timestamp;temperature;humidity
42743;DHT22;28397;44.552;-0.848;2023-06-01T00:00:33;19.80;99.90
42743;DHT22;28397;44.552;-0.848;2023-06-01T00:02:58;19.50;99.90
42743;DHT22;28397;44.552;-0.848;2023-06-01T00:05:24;19.50;99.90
42743;DHT22;28397;44.552;-0.848;2023-06-01T00:07:50;19.50;99.90
42743;DHT22;28397;44.552;-0.848;2023-06-01T00:10:16;19.50;99.90
42743;DHT22;28397;44.552;-0.848;2023-06-01T00:12:42;19.50;99.90
42743;DHT22;28397;44.552;-0.848;2023-06-01T00:15:09;19.50;99.90
42743;DHT22;28397;44.552;-0.848;2023-06-01T00:17:35;19.50;99.90
42743;DHT22;28397;44.552;-0.848;2023-06-01T00:20:01;19.50;99.90
42743;DHT22;28397;44.552;-0.848;2023-06-01T00:22:29;19.50;99.90
42743;DHT22;28397;44.552;-0.848;2023-06-01T00:25:00;19.60;99.90
42743;DHT22;28397;44.552;-0.848;2023-06-01T00:27:25;19.70;99.90
42743;DHT22;28397;44.552;-0.848;2023-06-01T00:29:51;19.80;99.90
42743;DHT22;28397;44.552;-0.848;2023-06-01T00:32:17;19.80;99.90
42743;DHT22;28397;44.552;-0.848;2023-06-01T00:34:42;19.80;99.90
42743;DHT22;28397;44.552;-0.848;2023-06-01T00:37:08;19.70;99.90
42743;DHT22;28397;44.552;-0.848;2023-06-01T00:39:33;19.60;99.90
42743;DHT22;28397;44.552;-0.848;2023-06-01T00:41:59;19.70;99.90
42743;DHT22;28397;44.552;-0.848;2023-06-01T00:44:25;19.70;99.90
42743;DHT22;28397;44.552;-0.848;2023-06-01T00:46:51;19.60;99.90
42743;DHT22;28397;44.552;-0.848;2023-06-01T00:49:18;19.70;99.90
42743;DHT22;28397;44.552;-0.848;2023-06-01T00:51:44;19.70;99.90
42743;DHT22;28397;44.552;-0.848;2023-06-01T00:54:10;19.70;99.90
42743;DHT22;28397;44.552;-0.848;2023-06-01T00:56:37;19.60;99.90
42743;DHT22;28397;44.552;-0.848;2023-06-01T00:59:03;19.70;99.90
42743;DHT22;28397;44.552;-0.848;2023-06-01T01:01:28;19.70;99.90
42743;DHT22;28397;44.552;-0.848;2023-06-01T01:03:54;19.70;99.90
42743;DHT22;28397;44.552;-0.848;2023-06-01T01:06:31;19.70;99.90
42743;DHT22;28397;44.552;-0.848;2023-06-01T01:09:26;19.70;99.90
42743;DHT22;28397;44.552;-0.848;2023-06-01T01:12:00;19.60;99.90
42743;DHT22;28397;44.552;-0.848;2023-06-01T01:14:33;19.60;99.90
42743;DHT22;28397;44.552;-0.848;2023-06-01T01:17:13;19.50;99.90
42743;DHT22;28397;44.552;-0.848;2023-06-01T01:25:50;19.60;99.90
42743;DHT22;28397;44.552;-0.848;2023-06-01T01:28:49;19.50;99.90
42743;DHT22;28397;44.552;-0.848;2023-06-01T01:31:17;19.50;99.90
42743;DHT22;28397;44.552;-0.848;2023-06-01T01:33:46;19.50;99.90
42743;DHT22;28397;44.552;-0.848;2023-06-01T01:36:13;19.50;99.90
42743;DHT22;28397;44.552;-0.848;2023-06-01T01:38:38;19.50;99.90
42743;DHT22;28397;44.552;-0.848;2023-06-01T01:41:05;19.40;99.90
42743;DHT22;28397;44.552;-0.848;2023-06-01T01:43:31;19.40;99.90
42743;DHT22;28397;44.552;-0.848;2023-06-01T01:48:48;19.30;99.90
42743;DHT22;28397;44.552;-0.848;2023-06-01T01:51:20;19.30;99.90
42743;DHT22;28397;44.552;-0.848;2023-06-01T01:53:48;19.30;99.90
42743;DHT22;28397;44.552;-0.848;2023-06-01T01:56:18;19.30;99.90
42743;DHT22;28397;44.552;-0.848;2023-06-01T01:58:45;19.30;99.90
42743;DHT22;28397;44.552;-0.848;2023-06-01T02:01:13;19.30;99.90
42743;DHT22;28397;44.552;-0.848;2023-06-01T02:03:39;19.30;99.90
42743;DHT22;28397;44.552;-0.848;2023-06-01T02:06:05;19.30;99.90
42743;DHT22;28397;44.552;-0.848;2023-06-01T02:08:30;19.30;99.90
42743;DHT22;28397;44.552;-0.848;2023-06-01T02:10:56;19.30;99.90
42743;DHT22;28397;44.552;-0.848;2023-06-01T02:13:22;19.40;99.90
42743;DHT22;28397;44.552;-0.848;2023-06-01T02:15:47;19.40;99.90
42743;DHT22;28397;44.552;-0.848;2023-06-01T02:18:13;19.40;99.90
42743;DHT22;28397;44.552;-0.848;2023-06-01T02:20:41;19.40;99.90
42743;DHT22;28397;44.552;-0.848;2023-06-01T02:23:07;19.40;99.90
42743;DHT22;28397;44.552;-0.848;2023-06-01T02:25:32;19.40;99.90
42743;DHT22;28397;44.552;-0.848;2023-06-01T02:27:58;19.40;99.90
42743;DHT22;28397;44.552;-0.848;2023-06-01T02:30:24;19.40;99.90
42743;DHT22;28397;44.552;-0.848;2023-06-01T02:32:49;19.40;99.90
42743;DHT22;28397;44.552;-0.848;2023-06-01T02:35:15;19.40;99.90
42743;DHT22;28397;44.552;-0.848;2023-06-01T02:37:41;19.40;99.90
42743;DHT22;28397;44.552;-0.848;2023-06-01T02:40:07;19.40;99.90
42743;DHT22;28397;44.552;-0.848;2023-06-01T02:42:37;19.40;99.90
42743;DHT22;28397;44.552;-0.848;2023-06-01T02:45:05;19.30;99.90
42743;DHT22;28397;44.552;-0.848;2023-06-01T02:47:31;19.30;99.90
42743;DHT22;28397;44.552;-0.848;2023-06-01T02:49:56;19.30;99.90
42743;DHT22;28397;44.552;-0.848;2023-06-01T02:52:22;19.30;99.90
42743;DHT22;28397;44.552;-0.848;2023-06-01T02:54:48;19.30;99.90
42743;DHT22;28397;44.552;-0.848;2023-06-01T02:57:14;19.30;99.90
42743;DHT22;28397;44.552;-0.848;2023-06-01T02:59:40;19.30;99.90
42743;DHT22;28397;44.552;-0.848;2023-06-01T03:02:06;19.30;99.90
42743;DHT22;28397;44.552;-0.848;2023-06-01T03:04:32;19.30;99.90
42743;DHT22;28397;44.552;-0.848;2023-06-01T03:06:58;19.30;99.90
42743;DHT22;28397;44.552;-0.848;2023-06-01T03:09:24;19.30;99.90
42743;DHT22;28397;44.552;-0.848;2023-06-01T03:11:50;19.20;99.90
42743;DHT22;28397;44.552;-0.848;2023-06-01T03:14:16;19.20;99.90
42743;DHT22;28397;44.552;-0.848;2023-06-01T03:16:41;19.30;99.90
42743;DHT22;28397;44.552;-0.848;2023-06-01T03:19:07;19.30;99.90
42743;DHT22;28397;44.552;-0.848;2023-06-01T03:21:33;19.30;99.90
42743;DHT22;28397;44.552;-0.848;2023-06-01T03:23:59;19.30;99.90
42743;DHT22;28397;44.552;-0.848;2023-06-01T03:26:25;19.30;99.90
42743;DHT22;28397;44.552;-0.848;2023-06-01T03:28:51;19.30;99.90
42743;DHT22;28397;44.552;-0.848;2023-06-01T03:31:16;19.30;99.90
42743;DHT22;28397;44.552;-0.848;2023-06-01T03:33:42;19.30;99.90
42743;DHT22;28397;44.552;-0.848;2023-06-01T03:36:08;19.20;99.90
42743;DHT22;28397;44.552;-0.848;2023-06-01T03:38:34;19.30;99.90
42743;DHT22;28397;44.552;-0.848;2023-06-01T03:41:00;19.20;99.90
42743;DHT22;28397;44.552;-0.848;2023-06-01T03:43:26;19.20;99.90
42743;DHT22;28397;44.552;-0.848;2023-06-01T03:45:52;19.20;99.90
42743;DHT22;28397;44.552;-0.848;2023-06-01T03:48:18;19.20;99.90
42743;DHT22;28397;44.552;-0.848;2023-06-01T03:50:44;19.30;99.90
42743;DHT22;28397;44.552;-0.848;2023-06-01T03:53:10;19.20;99.90
42743;DHT22;28397;44.552;-0.848;2023-06-01T03:55:36;19.20;99.90
42743;DHT22;28397;44.552;-0.848;2023-06-01T03:58:02;19.30;99.90
42743;DHT22;28397;44.552;-0.848;2023-06-01T04:00:28;19.30;99.90
42743;DHT22;28397;44.552;-0.848;2023-06-01T04:02:57;19.20;99.90
42743;DHT22;28397;44.552;-0.848;2023-06-01T04:05:24;19.20;99.90
42743;DHT22;28397;44.552;-0.848;2023-06-01T04:07:52;19.30;99.90
42743;DHT22;28397;44.552;-0.848;2023-06-01T04:10:19;19.30;99.90
42743;DHT22;28397;44.552;-0.848;2023-06-01T04:12:46;19.20;99.90
42743;DHT22;28397;44.552;-0.848;2023-06-01T04:15:14;19.20;99.90
42743;DHT22;28397;44.552;-0.848;2023-06-01T04:17:41;19.20;99.90
42743;DHT22;28397;44.552;-0.848;2023-06-01T04:20:09;19.20;99.90
42743;DHT22;28397;44.552;-0.848;2023-06-01T04:22:36;19.20;99.90
42743;DHT22;28397;44.552;-0.848;2023-06-01T04:25:06;19.20;99.90
42743;DHT22;28397;44.552;-0.848;2023-06-01T04:27:33;19.20;99.90
42743;DHT22;28397;44.552;-0.848;2023-06-01T04:30:06;19.20;99.90
42743;DHT22;28397;44.552;-0.848;2023-06-01T04:32:36;19.20;99.90
42743;DHT22;28397;44.552;-0.848;2023-06-01T04:35:06;19.20;99.90
42743;DHT22;28397;44.552;-0.848;2023-06-01T04:37:35;19.20;99.90
42743;DHT22;28397;44.552;-0.848;2023-06-01T04:40:02;19.20;99.90
42743;DHT22;28397;44.552;-0.848;2023-06-01T04:42:39;19.20;99.90
42743;DHT22;28397;44.552;-0.848;2023-06-01T04:45:07;19.20;99.90
42743;DHT22;28397;44.552;-0.848;2023-06-01T04:47:34;19.20;99.90
42743;DHT22;28397;44.552;-0.848;2023-06-01T04:50:07;19.20;99.90
42743;DHT22;28397;44.552;-0.848;2023-06-01T04:52:36;19.10;99.90
42743;DHT22;28397;44.552;-0.848;2023-06-01T04:55:03;19.10;99.90
42743;DHT22;28397;44.552;-0.848;2023-06-01T04:57:30;19.10;99.90
42743;DHT22;28397;44.552;-0.848;2023-06-01T04:59:56;19.20;99.90
42743;DHT22;28397;44.552;-0.848;2023-06-01T05:02:24;19.20;99.90
42743;DHT22;28397;44.552;-0.848;2023-06-01T05:04:50;19.20;99.90
42743;DHT22;28397;44.552;-0.848;2023-06-01T05:07:16;19.10;99.90
42743;DHT22;28397;44.552;-0.848;2023-06-01T05:09:41;19.10;99.90
42743;DHT22;28397;44.552;-0.848;2023-06-01T05:12:07;19.10;99.90
42743;DHT22;28397;44.552;-0.848;2023-06-01T05:14:34;19.20;99.90
42743;DHT22;28397;44.552;-0.848;2023-06-01T05:17:00;19.10;99.90
42743;DHT22;28397;44.552;-0.848;2023-06-01T05:19:25;19.10;99.90
42743;DHT22;28397;44.552;-0.848;2023-06-01T05:21:51;19.10;99.90
42743;DHT22;28397;44.552;-0.848;2023-06-01T05:24:18;19.20;99.90
42743;DHT22;28397;44.552;-0.848;2023-06-01T05:26:43;19.10;99.90
42743;DHT22;28397;44.552;-0.848;2023-06-01T05:29:09;19.10;99.90
42743;DHT22;28397;44.552;-0.848;2023-06-01T05:31:35;19.10;99.90
42743;DHT22;28397;44.552;-0.848;2023-06-01T05:34:01;19.10;99.90
42743;DHT22;28397;44.552;-0.848;2023-06-01T05:36:27;19.10;99.90
42743;DHT22;28397;44.552;-0.848;2023-06-01T05:38:53;19.00;99.90
42743;DHT22;28397;44.552;-0.848;2023-06-01T05:41:19;19.10;99.90
42743;DHT22;28397;44.552;-0.848;2023-06-01T05:43:44;19.10;99.90
42743;DHT22;28397;44.552;-0.848;2023-06-01T05:46:10;19.10;99.90
42743;DHT22;28397;44.552;-0.848;2023-06-01T05:48:36;19.10;99.90
42743;DHT22;28397;44.552;-0.848;2023-06-01T05:51:01;19.10;99.90
42743;DHT22;28397;44.552;-0.848;2023-06-01T05:53:27;19.10;99.90
42743;DHT22;28397;44.552;-0.848;2023-06-01T05:55:53;19.10;99.90
42743;DHT22;28397;44.552;-0.848;2023-06-01T05:58:19;19.10;99.90
42743;DHT22;28397;44.552;-0.848;2023-06-01T06:00:45;19.10;99.90
42743;DHT22;28397;44.552;-0.848;2023-06-01T06:03:12;19.10;99.90
42743;DHT22;28397;44.552;-0.848;2023-06-01T06:05:37;19.10;99.90
42743;DHT22;28397;44.552;-0.848;2023-06-01T06:08:03;19.10;99.90
42743;DHT22;28397;44.552;-0.848;2023-06-01T06:10:29;19.10;99.90
42743;DHT22;28397;44.552;-0.848;2023-06-01T06:12:54;19.20;99.90
42743;DHT22;28397;44.552;-0.848;2023-06-01T06:15:21;19.20;99.90
42743;DHT22;28397;44.552;-0.848;2023-06-01T06:17:46;19.20;99.90
42743;DHT22;28397;44.552;-0.848;2023-06-01T06:20:12;19.20;99.90
42743;DHT22;28397;44.552;-0.848;2023-06-01T06:22:38;19.20;99.90
42743;DHT22;28397;44.552;-0.848;2023-06-01T06:25:04;19.30;99.90
42743;DHT22;28397;44.552;-0.848;2023-06-01T06:27:30;19.30;99.90
42743;DHT22;28397;44.552;-0.848;2023-06-01T06:29:56;19.30;99.90
42743;DHT22;28397;44.552;-0.848;2023-06-01T06:32:22;19.40;99.90
42743;DHT22;28397;44.552;-0.848;2023-06-01T06:34:47;19.40;99.90
42743;DHT22;28397;44.552;-0.848;2023-06-01T06:37:13;19.40;99.90
42743;DHT22;28397;44.552;-0.848;2023-06-01T06:39:39;19.40;99.90
42743;DHT22;28397;44.552;-0.848;2023-06-01T06:42:05;19.50;99.90
42743;DHT22;28397;44.552;-0.848;2023-06-01T06:44:31;19.50;99.90
42743;DHT22;28397;44.552;-0.848;2023-06-01T06:46:59;19.50;99.90
42743;DHT22;28397;44.552;-0.848;2023-06-01T06:49:28;19.60;99.90
42743;DHT22;28397;44.552;-0.848;2023-06-01T06:51:53;19.60;99.90
42743;DHT22;28397;44.552;-0.848;2023-06-01T06:54:19;19.60;99.90
42743;DHT22;28397;44.552;-0.848;2023-06-01T06:56:45;19.60;99.90
42743;DHT22;28397;44.552;-0.848;2023-06-01T06:59:11;19.60;99.90
42743;DHT22;28397;44.552;-0.848;2023-06-01T07:01:36;19.70;99.90
42743;DHT22;28397;44.552;-0.848;2023-06-01T07:04:06;19.70;99.90
42743;DHT22;28397;44.552;-0.848;2023-06-01T07:06:32;19.70;99.90
42743;DHT22;28397;44.552;-0.848;2023-06-01T07:08:58;19.70;99.90
42743;DHT22;28397;44.552;-0.848;2023-06-01T07:11:24;19.70;99.90
42743;DHT22;28397;44.552;-0.848;2023-06-01T07:13:52;19.70;99.90
42743;DHT22;28397;44.552;-0.848;2023-06-01T07:16:18;19.80;99.90
42743;DHT22;28397;44.552;-0.848;2023-06-01T07:18:44;19.80;99.90
42743;DHT22;28397;44.552;-0.848;2023-06-01T07:21:09;19.80;99.90
42743;DHT22;28397;44.552;-0.848;2023-06-01T07:23:35;19.90;99.90
42743;DHT22;28397;44.552;-0.848;2023-06-01T07:26:01;19.90;99.90
42743;DHT22;28397;44.552;-0.848;2023-06-01T07:28:27;19.90;99.90
42743;DHT22;28397;44.552;-0.848;2023-06-01T07:30:53;19.90;99.90
42743;DHT22;28397;44.552;-0.848;2023-06-01T07:33:19;19.90;99.90
42743;DHT22;28397;44.552;-0.848;2023-06-01T07:35:45;19.90;99.90
42743;DHT22;28397;44.552;-0.848;2023-06-01T07:38:11;20.00;99.90
42743;DHT22;28397;44.552;-0.848;2023-06-01T07:40:37;20.10;99.90
42743;DHT22;28397;44.552;-0.848;2023-06-01T07:43:03;20.20;99.90
42743;DHT22;28397;44.552;-0.848;2023-06-01T07:45:29;20.20;99.90
42743;DHT22;28397;44.552;-0.848;2023-06-01T07:47:55;20.30;99.90
42743;DHT22;28397;44.552;-0.848;2023-06-01T07:50:20;20.50;99.90
42743;DHT22;28397;44.552;-0.848;2023-06-01T07:52:48;20.50;99.90
42743;DHT22;28397;44.552;-0.848;2023-06-01T07:55:15;20.50;99.90
42743;DHT22;28397;44.552;-0.848;2023-06-01T07:57:41;20.50;99.90
42743;DHT22;28397;44.552;-0.848;2023-06-01T08:00:07;20.50;99.90
42743;DHT22;28397;44.552;-0.848;2023-06-01T08:02:36;20.60;99.90
42743;DHT22;28397;44.552;-0.848;2023-06-01T08:05:02;20.60;99.90
42743;DHT22;28397;44.552;-0.848;2023-06-01T08:07:28;20.60;99.90
42743;DHT22;28397;44.552;-0.848;2023-06-01T08:09:55;20.70;99.90
42743;DHT22;28397;44.552;-0.848;2023-06-01T08:12:23;20.70;99.90
42743;DHT22;28397;44.552;-0.848;2023-06-01T08:14:49;20.70;99.90
42743;DHT22;28397;44.552;-0.848;2023-06-01T08:17:14;20.70;99.90
42743;DHT22;28397;44.552;-0.848;2023-06-01T08:19:41;20.80;99.90
42743;DHT22;28397;44.552;-0.848;2023-06-01T08:22:07;21.00;99.90
42743;DHT22;28397;44.552;-0.848;2023-06-01T08:24:33;20.90;99.90
42743;DHT22;28397;44.552;-0.848;2023-06-01T08:26:59;20.90;99.90
42743;DHT22;28397;44.552;-0.848;2023-06-01T08:29:26;20.90;99.90
42743;DHT22;28397;44.552;-0.848;2023-06-01T08:31:52;20.90;99.90
42743;DHT22;28397;44.552;-0.848;2023-06-01T08:34:18;21.00;99.90
42743;DHT22;28397;44.552;-0.848;2023-06-01T08:36:45;21.00;99.90
42743;DHT22;28397;44.552;-0.848;2023-06-01T08:39:23;21.00;99.90
42743;DHT22;28397;44.552;-0.848;2023-06-01T08:42:08;21.00;99.90
42743;DHT22;28397;44.552;-0.848;2023-06-01T08:44:38;21.10;99.90
42743;DHT22;28397;44.552;-0.848;2023-06-01T08:47:05;21.10;99.90
42743;DHT22;28397;44.552;-0.848;2023-06-01T08:49:32;21.10;99.90
42743;DHT22;28397;44.552;-0.848;2023-06-01T08:52:06;21.20;99.90
42743;DHT22;28397;44.552;-0.848;2023-06-01T08:54:32;21.30;99.90
42743;DHT22;28397;44.552;-0.848;2023-06-01T08:57:04;21.30;99.90
42743;DHT22;28397;44.552;-0.848;2023-06-01T08:59:31;21.40;99.90
42743;DHT22;28397;44.552;-0.848;2023-06-01T09:01:58;21.50;99.90
42743;DHT22;28397;44.552;-0.848;2023-06-01T09:04:23;21.60;99.90
42743;DHT22;28397;44.552;-0.848;2023-06-01T09:06:49;21.70;99.90
42743;DHT22;28397;44.552;-0.848;2023-06-01T09:09:15;21.60;99.90
42743;DHT22;28397;44.552;-0.848;2023-06-01T09:11:40;21.60;99.90
42743;DHT22;28397;44.552;-0.848;2023-06-01T09:14:22;21.60;99.90
42743;DHT22;28397;44.552;-0.848;2023-06-01T09:16:49;21.70;99.90
42743;DHT22;28397;44.552;-0.848;2023-06-01T09:19:15;21.90;99.90
42743;DHT22;28397;44.552;-0.848;2023-06-01T09:22:01;21.90;99.90
42743;DHT22;28397;44.552;-0.848;2023-06-01T09:24:27;21.80;99.90
42743;DHT22;28397;44.552;-0.848;2023-06-01T09:26:59;21.90;99.90
42743;DHT22;28397;44.552;-0.848;2023-06-01T09:29:25;21.90;99.90
42743;DHT22;28397;44.552;-0.848;2023-06-01T09:31:52;21.90;99.90
42743;DHT22;28397;44.552;-0.848;2023-06-01T09:34:20;21.90;99.90
42743;DHT22;28397;44.552;-0.848;2023-06-01T09:36:46;21.90;99.90
42743;DHT22;28397;44.552;-0.848;2023-06-01T09:39:14;21.90;99.90
42743;DHT22;28397;44.552;-0.848;2023-06-01T09:41:59;21.90;99.90
42743;DHT22;28397;44.552;-0.848;2023-06-01T09:44:36;22.00;99.90
42743;DHT22;28397;44.552;-0.848;2023-06-01T09:47:06;22.00;99.90
42743;DHT22;28397;44.552;-0.848;2023-06-01T09:49:36;22.10;99.90
42743;DHT22;28397;44.552;-0.848;2023-06-01T09:54:34;22.10;99.90
42743;DHT22;28397;44.552;-0.848;2023-06-01T09:57:01;22.10;99.90
42743;DHT22;28397;44.552;-0.848;2023-06-01T09:59:28;22.20;99.90
42743;DHT22;28397;44.552;-0.848;2023-06-01T10:01:58;22.20;99.90
42743;DHT22;28397;44.552;-0.848;2023-06-01T10:04:28;22.30;99.90
42743;DHT22;28397;44.552;-0.848;2023-06-01T10:06:57;22.40;99.90
42743;DHT22;28397;44.552;-0.848;2023-06-01T10:09:24;22.50;99.90
42743;DHT22;28397;44.552;-0.848;2023-06-01T10:11:55;22.50;99.90
42743;DHT22;28397;44.552;-0.848;2023-06-01T10:14:24;22.50;99.90
42743;DHT22;28397;44.552;-0.848;2023-06-01T10:16:51;22.40;99.90
42743;DHT22;28397;44.552;-0.848;2023-06-01T10:19:19;22.60;99.90
42743;DHT22;28397;44.552;-0.848;2023-06-01T10:21:45;22.90;99.90
42743;DHT22;28397;44.552;-0.848;2023-06-01T10:24:13;23.00;99.90
42743;DHT22;28397;44.552;-0.848;2023-06-01T10:29:37;23.00;99.90
42743;DHT22;28397;44.552;-0.848;2023-06-01T10:32:03;23.10;99.90
42743;DHT22;28397;44.552;-0.848;2023-06-01T10:34:41;23.00;99.90
42743;DHT22;28397;44.552;-0.848;2023-06-01T10:39:34;23.00;99.90
42743;DHT22;28397;44.552;-0.848;2023-06-01T10:47:06;23.30;99.90
42743;DHT22;28397;44.552;-0.848;2023-06-01T10:52:35;23.60;99.90
42743;DHT22;28397;44.552;-0.848;2023-06-01T10:55:25;23.70;99.90
42743;DHT22;28397;44.552;-0.848;2023-06-01T10:57:52;23.90;99.90
42743;DHT22;28397;44.552;-0.848;2023-06-01T11:00:40;24.00;99.90
42743;DHT22;28397;44.552;-0.848;2023-06-01T11:03:06;24.00;99.90
42743;DHT22;28397;44.552;-0.848;2023-06-01T11:05:47;24.00;99.90
42743;DHT22;28397;44.552;-0.848;2023-06-01T11:13:25;24.00;99.90
42743;DHT22;28397;44.552;-0.848;2023-06-01T11:21:11;24.10;99.90
42743;DHT22;28397;44.552;-0.848;2023-06-01T11:23:41;24.30;99.90
42743;DHT22;28397;44.552;-0.848;2023-06-01T11:26:07;24.30;99.90
42743;DHT22;28397;44.552;-0.848;2023-06-01T11:28:33;24.30;99.90
42743;DHT22;28397;44.552;-0.848;2023-06-01T11:31:02;24.30;99.90
42743;DHT22;28397;44.552;-0.848;2023-06-01T11:33:29;24.40;99.90
42743;DHT22;28397;44.552;-0.848;2023-06-01T11:35:59;24.50;99.90
42743;DHT22;28397;44.552;-0.848;2023-06-01T11:38:39;24.50;99.90
42743;DHT22;28397;44.552;-0.848;2023-06-01T11:41:05;24.30;99.90
42743;DHT22;28397;44.552;-0.848;2023-06-01T11:43:32;24.10;99.90
42743;DHT22;28397;44.552;-0.848;2023-06-01T11:46:01;24.00;99.90
42743;DHT22;28397;44.552;-0.848;2023-06-01T11:48:28;23.90;99.90
42743;DHT22;28397;44.552;-0.848;2023-06-01T11:50:55;23.80;99.90
42743;DHT22;28397;44.552;-0.848;2023-06-01T11:53:21;23.80;99.90
42743;DHT22;28397;44.552;-0.848;2023-06-01T11:55:54;23.80;99.90
42743;DHT22;28397;44.552;-0.848;2023-06-01T11:58:28;23.80;99.90
42743;DHT22;28397;44.552;-0.848;2023-06-01T12:00:55;23.70;99.90
42743;DHT22;28397;44.552;-0.848;2023-06-01T12:03:22;23.70;99.90
42743;DHT22;28397;44.552;-0.848;2023-06-01T12:05:50;23.60;99.90
42743;DHT22;28397;44.552;-0.848;2023-06-01T12:08:21;23.40;99.90
42743;DHT22;28397;44.552;-0.848;2023-06-01T12:10:48;23.30;99.90
42743;DHT22;28397;44.552;-0.848;2023-06-01T12:13:15;23.30;99.90
42743;DHT22;28397;44.552;-0.848;2023-06-01T12:15:41;23.20;99.90
42743;DHT22;28397;44.552;-0.848;2023-06-01T12:18:07;23.10;99.90
42743;DHT22;28397;44.552;-0.848;2023-06-01T12:20:42;23.10;99.90
42743;DHT22;28397;44.552;-0.848;2023-06-01T12:25:52;23.00;99.90
42743;DHT22;28397;44.552;-0.848;2023-06-01T12:28:19;23.00;99.90
42743;DHT22;28397;44.552;-0.848;2023-06-01T12:30:46;22.90;99.90
42743;DHT22;28397;44.552;-0.848;2023-06-01T12:33:31;22.90;99.90
42743;DHT22;28397;44.552;-0.848;2023-06-01T12:35:59;23.10;99.90
42743;DHT22;28397;44.552;-0.848;2023-06-01T12:38:24;23.30;99.90
42743;DHT22;28397;44.552;-0.848;2023-06-01T12:41:11;23.40;99.90
42743;DHT22;28397;44.552;-0.848;2023-06-01T12:43:44;23.50;99.90
42743;DHT22;28397;44.552;-0.848;2023-06-01T12:46:18;23.50;99.90
42743;DHT22;28397;44.552;-0.848;2023-06-01T12:48:44;23.50;99.90
42743;DHT22;28397;44.552;-0.848;2023-06-01T12:51:11;23.50;99.90
42743;DHT22;28397;44.552;-0.848;2023-06-01T12:53:36;23.50;99.90
42743;DHT22;28397;44.552;-0.848;2023-06-01T12:56:02;23.50;99.90
42743;DHT22;28397;44.552;-0.848;2023-06-01T12:58:28;23.50;99.90
42743;DHT22;28397;44.552;-0.848;2023-06-01T13:00:54;23.40;99.90
42743;DHT22;28397;44.552;-0.848;2023-06-01T13:03:19;23.40;99.90
42743;DHT22;28397;44.552;-0.848;2023-06-01T13:05:47;23.30;99.90
42743;DHT22;28397;44.552;-0.848;2023-06-01T13:08:15;23.30;99.90
42743;DHT22;28397;44.552;-0.848;2023-06-01T13:10:45;23.60;99.90
42743;DHT22;28397;44.552;-0.848;2023-06-01T13:13:10;24.10;99.90
42743;DHT22;28397;44.552;-0.848;2023-06-01T13:15:41;24.40;99.90
42743;DHT22;28397;44.552;-0.848;2023-06-01T13:18:07;24.30;99.90
42743;DHT22;28397;44.552;-0.848;2023-06-01T13:20:34;24.40;99.90
42743;DHT22;28397;44.552;-0.848;2023-06-01T13:23:00;24.40;99.90
42743;DHT22;28397;44.552;-0.848;2023-06-01T13:25:26;24.60;99.90
42743;DHT22;28397;44.552;-0.848;2023-06-01T13:27:51;24.90;99.90
42743;DHT22;28397;44.552;-0.848;2023-06-01T13:30:17;24.80;99.90
42743;DHT22;28397;44.552;-0.848;2023-06-01T13:32:44;24.50;99.90
42743;DHT22;28397;44.552;-0.848;2023-06-01T13:35:10;24.50;99.90
42743;DHT22;28397;44.552;-0.848;2023-06-01T13:37:37;24.60;99.90
42743;DHT22;28397;44.552;-0.848;2023-06-01T13:40:03;24.40;99.90
42743;DHT22;28397;44.552;-0.848;2023-06-01T13:42:31;24.50;99.90
42743;DHT22;28397;44.552;-0.848;2023-06-01T13:44:58;24.40;99.90
42743;DHT22;28397;44.552;-0.848;2023-06-01T13:47:24;24.60;99.90
42743;DHT22;28397;44.552;-0.848;2023-06-01T13:49:50;24.80;99.90
42743;DHT22;28397;44.552;-0.848;2023-06-01T13:52:16;24.70;99.90
42743;DHT22;28397;44.552;-0.848;2023-06-01T13:54:42;24.60;99.90
42743;DHT22;28397;44.552;-0.848;2023-06-01T13:57:09;24.50;99.90
42743;DHT22;28397;44.552;-0.848;2023-06-01T13:59:35;24.40;99.90
42743;DHT22;28397;44.552;-0.848;2023-06-01T14:02:02;24.60;99.90
42743;DHT22;28397;44.552;-0.848;2023-06-01T14:04:29;24.70;99.90
42743;DHT22;28397;44.552;-0.848;2023-06-01T14:06:55;24.40;99.90
42743;DHT22;28397;44.552;-0.848;2023-06-01T14:09:21;24.30;99.90
42743;DHT22;28397;44.552;-0.848;2023-06-01T14:11:47;24.50;99.90
42743;DHT22;28397;44.552;-0.848;2023-06-01T14:14:13;24.60;99.90
42743;DHT22;28397;44.552;-0.848;2023-06-01T14:16:39;24.60;99.90
42743;DHT22;28397;44.552;-0.848;2023-06-01T14:19:05;25.00;99.90
42743;DHT22;28397;44.552;-0.848;2023-06-01T14:21:31;25.10;99.90
42743;DHT22;28397;44.552;-0.848;2023-06-01T14:23:58;25.40;99.90
42743;DHT22;28397;44.552;-0.848;2023-06-01T14:26:24;25.50;99.90
42743;DHT22;28397;44.552;-0.848;2023-06-01T14:28:50;25.60;99.90
42743;DHT22;28397;44.552;-0.848;2023-06-01T14:31:15;25.70;99.90
42743;DHT22;28397;44.552;-0.848;2023-06-01T14:33:41;25.70;99.90
42743;DHT22;28397;44.552;-0.848;2023-06-01T14:36:08;25.70;99.90
42743;DHT22;28397;44.552;-0.848;2023-06-01T14:38:33;25.50;99.90
42743;DHT22;28397;44.552;-0.848;2023-06-01T14:40:59;25.30;99.90
42743;DHT22;28397;44.552;-0.848;2023-06-01T14:43:25;25.70;99.90
42743;DHT22;28397;44.552;-0.848;2023-06-01T14:45:51;25.80;99.90
42743;DHT22;28397;44.552;-0.848;2023-06-01T14:48:16;25.30;99.90
42743;DHT22;28397;44.552;-0.848;2023-06-01T14:50:42;24.80;99.90
42743;DHT22;28397;44.552;-0.848;2023-06-01T14:53:08;24.70;99.90
42743;DHT22;28397;44.552;-0.848;2023-06-01T14:55:34;24.60;99.90
42743;DHT22;28397;44.552;-0.848;2023-06-01T14:57:59;25.10;99.90
42743;DHT22;28397;44.552;-0.848;2023-06-01T15:00:26;25.00;99.90
42743;DHT22;28397;44.552;-0.848;2023-06-01T15:02:53;24.80;99.90
42743;DHT22;28397;44.552;-0.848;2023-06-01T15:05:19;24.60;99.90
42743;DHT22;28397;44.552;-0.848;2023-06-01T15:07:44;24.40;99.90
42743;DHT22;28397;44.552;-0.848;2023-06-01T15:10:10;24.30;99.90
42743;DHT22;28397;44.552;-0.848;2023-06-01T15:12:36;24.20;99.90
42743;DHT22;28397;44.552;-0.848;2023-06-01T15:15:02;24.20;99.90
42743;DHT22;28397;44.552;-0.848;2023-06-01T15:17:28;24.10;99.90
42743;DHT22;28397;44.552;-0.848;2023-06-01T15:19:53;24.10;99.90
42743;DHT22;28397;44.552;-0.848;2023-06-01T15:22:19;24.00;99.90
42743;DHT22;28397;44.552;-0.848;2023-06-01T15:24:45;23.90;99.90
42743;DHT22;28397;44.552;-0.848;2023-06-01T15:27:10;23.80;99.90
42743;DHT22;28397;44.552;-0.848;2023-06-01T15:29:36;23.80;99.90
42743;DHT22;28397;44.552;-0.848;2023-06-01T15:32:02;23.70;99.90
42743;DHT22;28397;44.552;-0.848;2023-06-01T15:34:28;23.60;99.90
42743;DHT22;28397;44.552;-0.848;2023-06-01T15:36:53;23.20;99.90
42743;DHT22;28397;44.552;-0.848;2023-06-01T15:39:21;23.10;99.90
42743;DHT22;28397;44.552;-0.848;2023-06-01T15:41:47;23.00;99.90
42743;DHT22;28397;44.552;-0.848;2023-06-01T15:44:12;23.00;99.90
42743;DHT22;28397;44.552;-0.848;2023-06-01T15:46:38;23.10;99.90
42743;DHT22;28397;44.552;-0.848;2023-06-01T15:49:04;23.10;99.90
42743;DHT22;28397;44.552;-0.848;2023-06-01T15:51:29;23.20;99.90
42743;DHT22;28397;44.552;-0.848;2023-06-01T15:53:55;23.30;99.90